Time;durP1;ratioP1;P1;durP2;ratioP2;P2;SDS_P1;SDS_P2;PMS_P1;PMS_P2;Temp;Humidity;BMP_temperature;BMP_pressure;BME280_temperature;BME280_humidity;BME280_pressure;Samples;Min_cycle;Max_cycle;Signal;HPM_P1;HPM_P2
2022/10/22 00:00:51;;;;;;;92.15;50.90;;;10.20;99.90;;;;;;4996574;28;20042;-84
2022/10/22 00:03:17;;;;;;;91.13;47.33;;;10.20;99.90;;;;;;4979001;28;20053;-84
2022/10/22 00:05:42;;;;;;;94.68;45.47;;;10.20;99.90;;;;;;4995956;28;20046;-84
2022/10/22 00:08:11;;;;;;;101.55;53.45;;;11.10;99.90;;;;;;4996288;28;20053;-84
2022/10/22 00:10:37;;;;;;;146.98;69.22;;;10.10;99.90;;;;;;5177584;23;20058;-84
2022/10/22 00:13:03;;;;;;;109.95;55.85;;;10.20;99.90;;;;;;4995967;28;20054;-84
2022/10/22 00:15:29;;;;;;;156.77;73.95;;;10.80;99.90;;;;;;4996455;28;20082;-84
2022/10/22 00:17:54;;;;;;;131.52;64.47;;;10.10;99.90;;;;;;4996818;28;20082;-84
2022/10/22 00:20:21;;;;;;;128.60;63.60;;;10.20;99.90;;;;;;4978141;28;20429;-84
2022/10/22 00:22:47;;;;;;;111.35;56.75;;;10.10;99.90;;;;;;4996792;28;20038;-84
2022/10/22 00:25:13;;;;;;;132.52;61.95;;;11.00;99.90;;;;;;4996219;28;20046;-84
2022/10/22 00:27:44;;;;;;;108.28;54.25;;;11.20;99.90;;;;;;4978038;28;20093;-84
2022/10/22 00:30:10;;;;;;;109.28;53.33;;;10.10;99.90;;;;;;4978476;28;20046;-84
2022/10/22 00:32:36;;;;;;;119.80;54.70;;;10.10;99.90;;;;;;4978763;28;20137;-84
2022/10/22 00:35:02;;;;;;;106.15;51.08;;;10.10;99.90;;;;;;4995544;28;20133;-84
2022/10/22 00:37:31;;;;;;;103.57;51.45;;;10.20;99.90;;;;;;4996242;28;20682;-84
2022/10/22 00:39:59;;;;;;;95.35;44.38;;;9.70;99.90;;;;;;4978135;28;20046;-84
2022/10/22 00:42:26;;;;;;;78.78;39.63;;;10.30;99.90;;;;;;4978519;28;20375;-84
2022/10/22 00:45:10;;;;;;;100.82;46.75;;;10.30;99.90;;;;;;4978882;28;20418;-84
2022/10/22 00:47:49;;;;;;;79.97;35.40;;;10.80;99.90;;;;;;4977776;28;20046;-84
2022/10/22 00:50:20;;;;;;;86.40;43.80;;;10.20;99.90;;;;;;4977879;28;20189;-84
2022/10/22 00:52:46;;;;;;;93.90;42.22;;;10.20;99.90;;;;;;4982319;23;20051;-84
2022/10/22 00:55:13;;;;;;;78.47;35.53;;;11.00;99.90;;;;;;4974297;28;20512;-84
2022/10/22 00:57:39;;;;;;;88.18;37.35;;;10.30;99.90;;;;;;4974879;28;20051;-84
2022/10/22 01:00:05;;;;;;;56.70;26.90;;;10.20;99.90;;;;;;4975058;28;20066;-84
2022/10/22 01:02:31;;;;;;;63.67;29.95;;;10.30;99.90;;;;;;4975374;28;20053;-84
2022/10/22 01:04:56;;;;;;;63.25;31.17;;;10.30;99.90;;;;;;4974939;28;20055;-84
2022/10/22 01:07:23;;;;;;;59.42;29.40;;;10.30;99.90;;;;;;4974741;28;20046;-84
2022/10/22 01:18:00;;;;;;;52.97;23.13;;;10.30;99.90;;;;;;4996206;28;20041;-84
2022/10/22 01:20:47;;;;;;;43.20;19.10;;;10.20;99.90;;;;;;4977467;28;20044;-84
2022/10/22 01:23:22;;;;;;;42.80;17.13;;;10.30;99.90;;;;;;4976832;28;20053;-84
2022/10/22 01:26:19;;;;;;;43.77;19.97;;;10.30;99.90;;;;;;4995441;28;20038;-84
2022/10/22 01:29:07;;;;;;;45.67;18.67;;;10.30;99.90;;;;;;4977999;28;20411;-84
2022/10/22 01:31:40;;;;;;;33.50;16.77;;;10.30;99.90;;;;;;4969204;28;20509;-84
2022/10/22 01:34:08;;;;;;;34.63;16.92;;;10.40;99.90;;;;;;4994744;28;20079;-84
2022/10/22 01:36:36;;;;;;;36.90;16.67;;;10.40;99.90;;;;;;4976939;28;20086;-84
2022/10/22 01:39:04;;;;;;;36.28;16.77;;;10.50;99.90;;;;;;4977329;28;20045;-84
2022/10/22 01:41:33;;;;;;;41.30;16.97;;;10.80;99.90;;;;;;4977471;28;20118;-84
2022/10/22 01:43:58;;;;;;;39.37;16.50;;;10.50;99.90;;;;;;4976855;28;20490;-84
2022/10/22 01:46:27;;;;;;;39.40;17.27;;;10.50;99.90;;;;;;4977198;28;20049;-84
2022/10/22 01:49:16;;;;;;;43.28;18.27;;;10.50;99.90;;;;;;4994977;28;20050;-84
2022/10/22 01:52:08;;;;;;;60.75;24.52;;;10.40;99.90;;;;;;4976449;28;20043;-84
2022/10/22 01:54:44;;;;;;;81.28;37.10;;;10.40;99.90;;;;;;4976916;28;20081;-84
2022/10/22 01:57:32;;;;;;;62.63;29.25;;;10.30;99.90;;;;;;5029614;23;20046;-84
2022/10/22 02:00:03;;;;;;;92.80;50.50;;;10.30;99.90;;;;;;4975227;28;20070;-84
2022/10/22 02:02:39;;;;;;;109.50;51.58;;;10.40;99.90;;;;;;4974415;28;20047;-84
2022/10/22 02:05:25;;;;;;;119.13;54.88;;;10.40;99.90;;;;;;4974277;28;20051;-84
2022/10/22 02:08:10;;;;;;;116.13;66.63;;;10.40;99.90;;;;;;5027555;23;20105;-84
2022/10/22 02:10:41;;;;;;;193.88;75.68;;;10.40;99.90;;;;;;4957305;28;20039;-84
2022/10/22 02:13:11;;;;;;;111.55;57.30;;;10.40;99.90;;;;;;4956389;28;20470;-85
2022/10/22 02:15:38;;;;;;;128.02;63.15;;;10.40;99.90;;;;;;4975060;28;20050;-84
2022/10/22 02:18:06;;;;;;;150.68;69.57;;;10.90;99.90;;;;;;4975071;28;20046;-84
2022/10/22 02:20:36;;;;;;;150.90;60.25;;;10.50;99.90;;;;;;4974415;28;20070;-84
2022/10/22 02:23:03;;;;;;;127.13;61.15;;;10.50;99.90;;;;;;4957760;28;20042;-84
2022/10/22 02:25:32;;;;;;;120.07;55.63;;;10.30;99.90;;;;;;4956327;28;20053;-84
2022/10/22 02:28:21;;;;;;;110.90;51.30;;;10.20;99.90;;;;;;4957473;28;20129;-84
2022/10/22 02:30:53;;;;;;;101.18;51.05;;;10.20;99.90;;;;;;4957135;28;20046;-84
2022/10/22 02:33:27;;;;;;;87.32;38.67;;;10.20;99.90;;;;;;4956636;28;20053;-84
2022/10/22 02:35:57;;;;;;;;;;;10.50;99.90;;;;;;4975089;28;20484;-84
2022/10/22 02:38:24;;;;;;;69.07;31.30;;;10.20;99.90;;;;;;4957189;28;19922;-84
2022/10/22 02:40:50;;;;;;;62.20;27.40;;;10.70;99.90;;;;;;4973588;28;20047;-84
2022/10/22 02:43:17;;;;;;;55.17;25.13;;;10.80;99.90;;;;;;4974214;28;20518;-84
2022/10/22 02:45:43;;;;;;;43.20;21.35;;;10.10;99.90;;;;;;4956802;28;20097;-84
2022/10/22 02:48:09;;;;;;;55.78;22.02;;;10.10;99.90;;;;;;4973275;28;20046;-84
2022/10/22 02:50:35;;;;;;;46.40;20.02;;;10.10;99.90;;;;;;4956881;28;20074;-84
2022/10/22 02:53:01;;;;;;;56.40;18.98;;;10.10;99.90;;;;;;4974589;28;20050;-84
2022/10/22 02:55:26;;;;;;;37.65;16.23;;;10.00;99.90;;;;;;4973295;28;20229;-84
2022/10/22 02:57:52;;;;;;;39.65;15.60;;;10.90;99.90;;;;;;4974105;28;20112;-84
2022/10/22 03:00:18;;;;;;;34.97;14.90;;;11.10;99.90;;;;;;4956521;28;20057;-84
2022/10/22 03:02:47;;;;;;;33.25;14.10;;;10.10;99.90;;;;;;4991463;23;20198;-84
2022/10/22 03:05:19;;;;;;;31.00;13.88;;;10.00;99.90;;;;;;4975292;28;20094;-84
2022/10/22 03:07:44;;;;;;;39.72;14.77;;;10.00;99.90;;;;;;4993024;28;20406;-84
2022/10/22 03:10:10;;;;;;;40.93;15.97;;;10.00;99.90;;;;;;4993122;28;20057;-85
2022/10/22 03:12:35;;;;;;;35.20;15.07;;;10.10;99.90;;;;;;4993429;28;20402;-85
2022/10/22 03:15:01;;;;;;;40.50;15.98;;;10.10;99.90;;;;;;4975045;28;20042;-85
2022/10/22 03:17:26;;;;;;;39.88;15.85;;;10.10;99.90;;;;;;4975919;28;20092;-85
2022/10/22 03:19:52;;;;;;;42.40;15.95;;;10.10;99.90;;;;;;4993326;28;20045;-85
2022/10/22 03:22:25;;;;;;;37.22;15.50;;;10.40;99.90;;;;;;4991206;28;20490;-84
2022/10/22 03:24:57;;;;;;;35.75;14.90;;;10.10;99.90;;;;;;4993399;28;20047;-84
2022/10/22 03:27:24;;;;;;;43.70;15.93;;;10.20;99.90;;;;;;4992646;28;20034;-84
2022/10/22 03:29:51;;;;;;;43.80;17.15;;;10.10;99.90;;;;;;4975032;28;20122;-84
2022/10/22 03:32:17;;;;;;;46.25;16.45;;;10.10;99.90;;;;;;4992787;28;20395;-84
2022/10/22 03:34:42;;;;;;;40.00;16.33;;;10.10;99.90;;;;;;4969205;23;20043;-84
2022/10/22 03:37:08;;;;;;;44.42;16.95;;;10.20;99.90;;;;;;4953630;29;20058;-85
2022/10/22 03:39:35;;;;;;;53.47;18.55;;;10.20;99.90;;;;;;4953846;29;20506;-84
2022/10/22 03:42:02;;;;;;;45.10;17.33;;;10.10;99.90;;;;;;4953144;29;20089;-85
2022/10/22 03:44:28;;;;;;;46.05;16.70;;;10.10;99.90;;;;;;4953627;28;20050;-84
2022/10/22 03:46:54;;;;;;;47.33;18.35;;;10.10;99.90;;;;;;4952696;29;20051;-84
2022/10/22 03:49:20;;;;;;;51.00;17.55;;;10.10;99.90;;;;;;4954312;28;20442;-84
2022/10/22 03:51:45;;;;;;;50.28;18.23;;;10.40;99.90;;;;;;4953813;29;20051;-84
2022/10/22 03:54:11;;;;;;;42.67;17.80;;;10.10;99.90;;;;;;4953747;29;20047;-84
2022/10/22 03:56:36;;;;;;;48.88;17.95;;;10.10;99.90;;;;;;4953045;29;20039;-85
2022/10/22 03:59:03;;;;;;;40.60;18.30;;;10.20;99.90;;;;;;4952257;29;20051;-84
2022/10/22 04:01:29;;;;;;;39.95;19.25;;;10.20;99.90;;;;;;4952062;28;20509;-84
2022/10/22 04:03:55;;;;;;;49.97;20.48;;;10.30;99.90;;;;;;4953044;28;20495;-85
2022/10/22 04:06:21;;;;;;;62.30;21.63;;;10.40;99.90;;;;;;4951637;29;20047;-85
2022/10/22 04:08:47;;;;;;;52.42;19.40;;;10.40;99.90;;;;;;4953633;29;20090;-85
2022/10/22 04:11:14;;;;;;;51.45;19.80;;;10.30;99.90;;;;;;4951757;29;20051;-84
2022/10/22 04:13:43;;;;;;;42.92;19.42;;;10.30;99.90;;;;;;4952547;29;20086;-84
2022/10/22 04:16:13;;;;;;;40.03;19.70;;;10.30;99.90;;;;;;4953489;28;20054;-85
2022/10/22 04:18:40;;;;;;;52.42;21.70;;;10.30;99.90;;;;;;4952175;28;20139;-85
2022/10/22 04:21:08;;;;;;;47.72;20.00;;;10.30;99.90;;;;;;4954274;28;20122;-85
2022/10/22 04:23:33;;;;;;;55.25;19.55;;;10.20;99.90;;;;;;4954029;28;20392;-84
2022/10/22 04:26:05;;;;;;;52.30;20.27;;;10.20;99.90;;;;;;4953025;29;20054;-84
2022/10/22 04:28:31;;;;;;;48.67;19.92;;;10.20;99.90;;;;;;4952522;29;20142;-84
2022/10/22 04:30:56;;;;;;;45.38;19.40;;;10.10;99.90;;;;;;4951981;28;20130;-84
2022/10/22 04:33:28;;;;;;;60.08;20.55;;;10.10;99.90;;;;;;4951568;28;20050;-84
2022/10/22 04:35:53;;;;;;;47.70;19.00;;;10.10;99.90;;;;;;4955938;29;20063;-84
2022/10/22 04:38:19;;;;;;;49.13;20.52;;;10.10;99.90;;;;;;5020954;23;20043;-84
2022/10/22 04:40:45;;;;;;;53.95;20.77;;;10.00;99.90;;;;;;4956590;29;20070;-84
2022/10/22 04:45:45;;;;;;;51.35;20.70;;;10.00;99.90;;;;;;4975346;28;20054;-85
2022/10/22 04:48:10;;;;;;;51.38;20.35;;;9.90;99.90;;;;;;4975965;28;20047;-84
2022/10/22 04:50:36;;;;;;;51.40;20.63;;;9.80;99.90;;;;;;4959436;28;20054;-84
2022/10/22 04:53:02;;;;;;;53.95;19.95;;;9.80;99.90;;;;;;4976551;28;20042;-84
2022/10/22 04:55:27;;;;;;;43.30;19.40;;;9.90;99.90;;;;;;4957775;28;20129;-85
2022/10/22 04:57:55;;;;;;;50.75;20.95;;;9.90;99.90;;;;;;4959266;28;20689;-84
2022/10/22 05:00:21;;;;;;;50.67;21.33;;;9.90;99.90;;;;;;4957947;28;20485;-84
2022/10/22 05:02:52;;;;;;;39.25;15.68;;;9.90;99.90;;;;;;4976523;28;20118;-84
2022/10/22 05:05:21;;;;;;;46.90;16.70;;;10.30;99.90;;;;;;4958510;28;20115;-84
2022/10/22 05:07:46;;;;;;;47.45;17.73;;;10.10;99.90;;;;;;4957857;28;20043;-84
2022/10/22 05:10:12;;;;;;;49.33;17.20;;;9.90;99.90;;;;;;4975437;28;20073;-84
2022/10/22 05:12:38;;;;;;;48.97;17.10;;;10.00;99.90;;;;;;4976345;28;20097;-84
2022/10/22 05:15:04;;;;;;;59.93;18.27;;;9.90;99.90;;;;;;4975571;28;20085;-84
2022/10/22 05:17:29;;;;;;;50.30;17.87;;;9.90;99.90;;;;;;4958300;28;20474;-84
2022/10/22 05:19:55;;;;;;;42.33;16.02;;;9.90;99.90;;;;;;5026793;23;20078;-84
2022/10/22 05:22:20;;;;;;;51.17;17.25;;;10.40;99.90;;;;;;4974811;28;20430;-85
2022/10/22 05:24:47;;;;;;;57.20;17.88;;;9.80;99.90;;;;;;4974411;28;20134;-84
2022/10/22 05:27:13;;;;;;;49.20;16.63;;;10.00;99.90;;;;;;4976929;28;20050;-85
2022/10/22 05:29:39;;;;;;;48.83;16.77;;;9.80;99.90;;;;;;4976448;28;20069;-85
2022/10/22 05:32:04;;;;;;;44.17;17.25;;;9.80;99.90;;;;;;4974972;28;20054;-84
2022/10/22 05:34:32;;;;;;;48.85;16.17;;;9.80;99.90;;;;;;4974208;28;20098;-84
2022/10/22 05:36:57;;;;;;;38.85;16.00;;;9.70;99.90;;;;;;4988472;23;20141;-84
2022/10/22 05:39:23;;;;;;;48.78;17.17;;;10.00;99.90;;;;;;5029383;23;20142;-84
2022/10/22 05:41:49;;;;;;;50.05;17.90;;;9.80;99.90;;;;;;4975841;28;20497;-84
2022/10/22 05:44:14;;;;;;;55.83;15.77;;;9.80;99.90;;;;;;4973378;28;20055;-85
2022/10/22 05:46:43;;;;;;;28.98;10.95;;;9.70;99.90;;;;;;4973808;28;20054;-84
2022/10/22 05:49:12;;;;;;;36.97;12.15;;;9.80;99.90;;;;;;4974176;28;20129;-85
2022/10/22 05:51:38;;;;;;;28.55;11.32;;;9.80;99.90;;;;;;4973197;28;20039;-84
2022/10/22 05:54:06;;;;;;;29.65;11.23;;;9.80;99.90;;;;;;4975253;28;20391;-84
2022/10/22 05:56:32;;;;;;;38.22;11.38;;;9.80;99.90;;;;;;4974964;28;20047;-84
2022/10/22 05:58:59;;;;;;;25.65;10.50;;;9.80;99.90;;;;;;4974062;28;20045;-85
2022/10/22 06:01:30;;;;;;;31.77;12.15;;;9.80;99.90;;;;;;4975087;28;20430;-84
2022/10/22 06:03:58;;;;;;;27.05;9.95;;;9.90;99.90;;;;;;5060679;23;20050;-84
2022/10/22 06:06:35;;;;;;;25.85;9.80;;;9.80;99.90;;;;;;4957066;28;20059;-85
2022/10/22 06:09:06;;;;;;;29.98;10.65;;;9.90;99.90;;;;;;4975256;28;20058;-85
2022/10/22 06:11:32;;;;;;;32.95;10.48;;;9.80;99.90;;;;;;4956724;28;20043;-84
2022/10/22 06:13:58;;;;;;;23.40;10.73;;;9.90;99.90;;;;;;4957315;28;20062;-85
2022/10/22 06:16:33;;;;;;;29.23;12.20;;;9.90;99.90;;;;;;5140138;23;20043;-84
2022/10/22 06:22:52;;;;;;;29.02;12.13;;;10.00;99.90;;;;;;4936453;29;20122;-84
2022/10/22 06:27:57;;;;;;;31.48;12.30;;;10.10;99.90;;;;;;5091189;23;20114;-84
2022/10/22 06:30:22;;;;;;;33.53;11.90;;;10.00;99.90;;;;;;4976416;28;20046;-83
2022/10/22 06:32:48;;;;;;;33.92;12.40;;;10.00;99.90;;;;;;4993310;28;20097;-84
2022/10/22 06:35:16;;;;;;;33.03;12.15;;;10.10;99.90;;;;;;4993898;28;20070;-82
2022/10/22 06:38:01;;;;;;;32.13;12.30;;;10.10;99.90;;;;;;5061403;23;20062;-84
2022/10/22 06:40:26;;;;;;;34.90;13.13;;;10.10;99.90;;;;;;4950829;28;20054;-83
2022/10/22 06:42:52;;;;;;;33.15;12.90;;;10.20;99.90;;;;;;4953528;28;20447;-84
2022/10/22 06:45:18;;;;;;;29.33;12.80;;;10.20;99.90;;;;;;4974464;28;20078;-84
2022/10/22 06:47:43;;;;;;;31.80;12.85;;;10.20;99.90;;;;;;4973566;28;20042;-84
2022/10/22 06:50:09;;;;;;;31.65;13.20;;;10.30;99.90;;;;;;4956476;28;20046;-83
2022/10/22 06:52:34;;;;;;;31.73;13.40;;;10.40;99.90;;;;;;4957147;28;20042;-84
2022/10/22 06:55:00;;;;;;;35.17;14.13;;;10.50;99.90;;;;;;4956404;28;20054;-84
2022/10/22 06:57:25;;;;;;;32.47;14.00;;;10.70;99.90;;;;;;4973959;28;20402;-82
2022/10/22 06:59:54;;;;;;;31.58;13.50;;;10.80;99.90;;;;;;4956100;28;20051;-81
2022/10/22 07:02:20;;;;;;;32.47;13.32;;;10.90;99.90;;;;;;4996429;23;20146;-82
2022/10/22 07:04:46;;;;;;;31.83;13.05;;;11.00;99.90;;;;;;4993313;28;20133;-82
2022/10/22 07:07:14;;;;;;;34.83;13.35;;;11.20;99.90;;;;;;4975444;28;20042;-82
2022/10/22 07:12:15;;;;;;;34.50;13.82;;;11.50;99.90;;;;;;4971760;28;20432;-82
2022/10/22 07:14:41;;;;;;;33.55;14.32;;;11.60;99.90;;;;;;4973289;28;20617;-82
2022/10/22 07:17:07;;;;;;;36.08;13.10;;;11.80;99.90;;;;;;4955810;28;20077;-82
2022/10/22 07:19:33;;;;;;;31.70;12.60;;;11.90;99.90;;;;;;4973743;28;20078;-82
2022/10/22 07:21:59;;;;;;;31.75;12.38;;;12.90;99.90;;;;;;4955609;28;20070;-82
2022/10/22 07:24:24;;;;;;;33.85;12.18;;;12.10;99.90;;;;;;5024501;23;20054;-82
2022/10/22 07:26:56;;;;;;;30.70;12.25;;;12.30;99.90;;;;;;4974101;28;20202;-82
2022/10/22 07:29:25;;;;;;;35.47;13.30;;;12.30;99.90;;;;;;4971418;28;20156;-82
2022/10/22 07:31:51;;;;;;;32.20;11.35;;;12.50;99.90;;;;;;4972205;28;20133;-82
2022/10/22 07:34:16;;;;;;;31.13;12.10;;;12.60;99.90;;;;;;4972145;28;20062;-82
2022/10/22 07:39:16;;;;;;;27.08;11.65;;;12.70;99.90;;;;;;5043527;23;20043;-82
2022/10/22 07:41:44;;;;;;;32.25;11.90;;;13.50;99.90;;;;;;4956409;28;20050;-82
2022/10/22 07:44:13;;;;;;;29.67;10.73;;;13.00;99.90;;;;;;4955871;28;20510;-82
2022/10/22 07:46:38;;;;;;;27.95;10.88;;;13.00;99.90;;;;;;4956679;28;20394;-82
2022/10/22 07:49:05;;;;;;;27.23;11.15;;;13.80;99.90;;;;;;4972746;28;20051;-82
2022/10/22 07:51:31;;;;;;;24.63;10.43;;;13.20;99.90;;;;;;4975656;28;20154;-81
2022/10/22 07:53:57;;;;;;;27.00;10.65;;;13.30;99.90;;;;;;4956137;28;20086;-82
2022/10/22 07:56:22;;;;;;;25.55;10.05;;;14.30;99.90;;;;;;4953498;28;20051;-84
2022/10/22 07:58:48;;;;;;;22.88;9.35;;;13.40;99.90;;;;;;4936827;29;20050;-84
2022/10/22 08:01:13;;;;;;;23.20;9.77;;;13.40;99.90;;;;;;4937118;29;20078;-83
2022/10/22 08:03:39;;;;;;;23.30;9.02;;;13.50;99.90;;;;;;4953595;29;20483;-83
2022/10/22 08:06:30;;;;;;;21.30;9.00;;;13.50;99.90;;;;;;4953780;28;20491;-83
2022/10/22 08:08:56;;;;;;;21.90;8.23;;;13.50;99.90;;;;;;4960978;23;20474;-83
2022/10/22 08:11:21;;;;;;;23.48;8.40;;;13.60;99.90;;;;;;4955851;29;20141;-83
2022/10/22 08:13:47;;;;;;;20.83;8.35;;;13.60;99.90;;;;;;4958129;29;20475;-83
2022/10/22 08:16:13;;;;;;;20.88;9.25;;;13.60;99.90;;;;;;4957342;29;20087;-83
2022/10/22 08:18:39;;;;;;;21.90;7.80;;;13.60;99.90;;;;;;4959963;23;20665;-83
2022/10/22 08:21:04;;;;;;;19.45;7.38;;;13.90;99.90;;;;;;4957569;28;20061;-83
2022/10/22 08:23:30;;;;;;;19.55;7.93;;;13.60;99.90;;;;;;4956599;28;20055;-82
2022/10/22 08:25:57;;;;;;;22.10;7.78;;;13.60;99.90;;;;;;4972243;23;20051;-83
2022/10/22 08:28:22;;;;;;;18.92;7.40;;;13.60;99.90;;;;;;4975839;28;20105;-83
2022/10/22 08:30:56;;;;;;;18.08;7.57;;;14.60;99.90;;;;;;4959620;28;20050;-84
2022/10/22 08:33:21;;;;;;;17.33;6.88;;;14.60;99.90;;;;;;5192995;23;20120;-84
2022/10/22 08:35:49;;;;;;;15.57;6.60;;;13.70;99.90;;;;;;5131948;23;20139;-83
2022/10/22 08:49:37;;;;;;;17.77;7.05;;;13.80;99.90;;;;;;4918377;29;20075;-83
2022/10/22 08:52:47;;;;;;;19.05;6.43;;;14.00;99.90;;;;;;4918644;29;20456;-84
2022/10/22 08:55:14;;;;;;;15.95;6.50;;;13.90;99.90;;;;;;4901587;29;20405;-84
2022/10/22 08:57:58;;;;;;;18.80;6.63;;;14.30;99.90;;;;;;4901625;29;20130;-83
2022/10/22 09:00:27;;;;;;;25.77;7.53;;;14.00;99.90;;;;;;4900789;29;20044;-84
2022/10/22 09:06:34;;;;;;;14.95;5.80;;;14.20;99.90;;;;;;4977392;28;20051;-84
2022/10/22 09:09:01;;;;;;;13.82;5.43;;;14.20;99.90;;;;;;4977903;28;20054;-83
2022/10/22 09:11:31;;;;;;;15.70;5.65;;;14.50;99.90;;;;;;4995029;28;20057;-83
2022/10/22 09:13:59;;;;;;;15.85;6.13;;;14.40;99.90;;;;;;4980837;23;20059;-83
2022/10/22 09:16:34;;;;;;;14.20;5.15;;;14.50;99.90;;;;;;4984717;23;20069;-83
2022/10/22 09:19:27;;;;;;;13.23;5.35;;;14.50;99.90;;;;;;4994984;28;20486;-84
2022/10/22 09:22:17;;;;;;;15.13;5.18;;;14.70;99.90;;;;;;4991296;28;20450;-83
2022/10/22 09:25:19;;;;;;;15.15;5.32;;;14.70;99.90;;;;;;5050086;23;20510;-83
2022/10/22 09:30:55;;;;;;;13.80;5.18;;;14.90;99.90;;;;;;4963566;28;20508;-83
2022/10/22 09:33:26;;;;;;;14.48;5.25;;;15.10;99.90;;;;;;4975046;28;20119;-83
2022/10/22 09:35:56;;;;;;;13.88;5.18;;;15.10;99.90;;;;;;4974949;28;20039;-83
2022/10/22 09:38:28;;;;;;;15.23;7.03;;;15.20;99.90;;;;;;4975015;28;20439;-84
2022/10/22 09:40:56;;;;;;;13.18;5.45;;;15.20;99.90;;;;;;4975519;28;20462;-83
2022/10/22 09:43:22;;;;;;;13.23;5.32;;;15.30;99.90;;;;;;4976169;28;20047;-84
2022/10/22 09:45:55;;;;;;;12.73;4.93;;;15.20;99.90;;;;;;4974170;28;20082;-85
2022/10/22 09:48:29;;;;;;;12.45;4.60;;;15.60;99.90;;;;;;4974137;28;20551;-85
2022/10/22 09:51:10;;;;;;;14.05;6.20;;;15.30;99.90;;;;;;4974695;28;20098;-85
2022/10/22 09:53:55;;;;;;;13.70;5.22;;;15.40;99.90;;;;;;4975523;28;20113;-86
2022/10/22 09:56:41;;;;;;;25.80;15.65;;;15.40;99.90;;;;;;4973572;28;20047;-87
2022/10/22 09:59:30;;;;;;;12.90;5.53;;;15.40;99.90;;;;;;4972922;28;20112;-85
2022/10/22 10:08:51;;;;;;;11.95;4.38;;;15.60;99.90;;;;;;4989274;28;20057;-85
2022/10/22 10:11:21;;;;;;;11.05;4.70;;;14.90;99.90;;;;;;4988593;28;20058;-86
2022/10/22 10:13:56;;;;;;;14.43;4.85;;;15.40;99.90;;;;;;4977109;28;20070;-86
2022/10/22 10:16:37;;;;;;;13.45;5.32;;;16.50;99.90;;;;;;4968018;28;20042;-85
2022/10/22 10:19:24;;;;;;;10.13;4.10;;;15.40;99.90;;;;;;4983045;28;20119;-85
2022/10/22 10:22:16;;;;;;;10.95;4.22;;;15.30;99.90;;;;;;4968642;28;20046;-86
2022/10/22 10:25:17;;;;;;;15.88;4.32;;;15.30;99.90;;;;;;4966954;28;20062;-85
2022/10/22 10:27:52;;;;;;;26.70;13.73;;;15.20;99.90;;;;;;4984698;28;20067;-86
2022/10/22 10:30:22;;;;;;;26.52;12.73;;;15.20;99.90;;;;;;4962246;28;20154;-85
2022/10/22 10:33:01;;;;;;;20.45;9.45;;;16.00;99.90;;;;;;5000864;23;20419;-85
2022/10/22 10:35:35;;;;;;;22.42;5.10;;;15.20;99.90;;;;;;5020775;23;20106;-86
2022/10/22 10:38:30;;;;;;;13.90;4.50;;;16.20;99.90;;;;;;4952672;28;20118;-85
2022/10/22 10:40:58;;;;;;;18.58;7.80;;;15.30;99.90;;;;;;4955247;28;20091;-85
2022/10/22 10:43:30;;;;;;;16.75;6.65;;;15.30;99.90;;;;;;4958452;28;20043;-85
2022/10/22 10:46:22;;;;;;;13.32;4.80;;;15.60;99.90;;;;;;4953823;28;20443;-85
2022/10/22 10:49:01;;;;;;;14.32;4.85;;;15.30;99.90;;;;;;4967415;28;20105;-84
2022/10/22 10:51:45;;;;;;;15.82;6.65;;;15.30;99.90;;;;;;4971778;28;20102;-86
2022/10/22 10:54:30;;;;;;;12.60;5.25;;;15.40;99.90;;;;;;4974122;28;20070;-85
2022/10/22 10:57:31;;;;;;;18.00;7.75;;;15.60;99.90;;;;;;5106638;23;20067;-86
2022/10/22 11:00:06;;;;;;;14.52;4.45;;;15.40;99.90;;;;;;4972508;28;20051;-87
2022/10/22 11:02:52;;;;;;;13.10;5.25;;;15.50;99.90;;;;;;4974372;28;20035;-86
2022/10/22 11:05:47;;;;;;;11.15;4.45;;;15.50;99.90;;;;;;4945999;28;20079;-86
2022/10/22 11:08:23;;;;;;;18.15;7.63;;;15.50;99.90;;;;;;4956277;28;20043;-84
2022/10/22 11:11:06;;;;;;;15.02;5.72;;;15.60;99.90;;;;;;4955980;28;20058;-83
2022/10/22 11:13:40;;;;;;;17.40;7.30;;;15.70;99.90;;;;;;4955852;28;20047;-84
2022/10/22 11:16:25;;;;;;;12.20;5.30;;;15.80;99.90;;;;;;4956587;28;20494;-83
2022/10/22 11:18:54;;;;;;;13.13;5.13;;;15.80;99.90;;;;;;4951403;28;20153;-85
2022/10/22 11:21:31;;;;;;;14.98;5.43;;;16.30;99.90;;;;;;4963450;28;20047;-85
2022/10/22 11:24:24;;;;;;;13.70;6.10;;;15.60;99.90;;;;;;4953893;28;20117;-85
2022/10/22 11:27:10;;;;;;;16.92;6.13;;;15.50;99.90;;;;;;4973982;28;20057;-86
2022/10/22 11:29:51;;;;;;;10.73;4.95;;;15.40;99.90;;;;;;4956674;28;20082;-86
2022/10/22 11:32:19;;;;;;;18.50;9.25;;;15.90;99.90;;;;;;4956239;28;20043;-85
2022/10/22 11:35:00;;;;;;;12.70;5.53;;;15.30;99.90;;;;;;4956004;28;20062;-85
2022/10/22 11:37:33;;;;;;;12.93;7.00;;;15.20;99.90;;;;;;4956292;28;20039;-84
2022/10/22 11:40:21;;;;;;;13.70;5.53;;;15.30;99.90;;;;;;4973664;28;20372;-85
2022/10/22 11:43:15;;;;;;;14.52;5.72;;;15.40;99.90;;;;;;4972577;28;20553;-85
2022/10/22 11:45:42;;;;;;;16.83;5.63;;;15.50;99.90;;;;;;4933962;28;20089;-85
2022/10/22 11:48:34;;;;;;;13.48;5.95;;;15.60;99.90;;;;;;4972927;28;20054;-85
2022/10/22 11:51:28;;;;;;;14.10;5.60;;;14.60;99.90;;;;;;4992738;23;20162;-85
2022/10/22 11:54:00;;;;;;;13.27;5.57;;;15.50;99.90;;;;;;4985353;28;20054;-86
2022/10/22 11:56:35;;;;;;;11.93;5.43;;;16.40;99.90;;;;;;4973756;28;20576;-85
2022/10/22 11:59:21;;;;;;;13.60;5.60;;;15.50;99.90;;;;;;4975665;28;20061;-85
2022/10/22 12:01:47;;;;;;;15.52;6.20;;;15.50;99.90;;;;;;4975442;28;20057;-85
2022/10/22 12:04:20;;;;;;;14.05;6.15;;;15.60;99.90;;;;;;4974676;28;20047;-85
2022/10/22 12:06:54;;;;;;;;;;;15.60;99.90;;;;;;4993382;28;20053;-84
2022/10/22 12:09:24;;;;;;;14.17;7.27;;;15.50;99.90;;;;;;4974115;28;20368;-82
2022/10/22 12:11:50;;;;;;;13.38;6.13;;;15.60;99.90;;;;;;4975514;28;20038;-82
2022/10/22 12:14:31;;;;;;;13.50;5.68;;;15.50;99.90;;;;;;4992140;28;20120;-83
2022/10/22 12:17:13;;;;;;;13.75;6.75;;;16.20;99.90;;;;;;4974826;28;20529;-83
2022/10/22 12:19:54;;;;;;;15.75;6.15;;;15.70;99.90;;;;;;4975477;28;20055;-83
2022/10/22 12:22:27;;;;;;;19.67;5.78;;;15.80;99.90;;;;;;4975410;28;20042;-84
2022/10/22 12:24:56;;;;;;;12.98;5.68;;;15.80;99.90;;;;;;4972855;28;20046;-83
2022/10/22 12:27:26;;;;;;;17.80;5.85;;;16.50;99.90;;;;;;4973205;28;20062;-83
2022/10/22 12:29:57;;;;;;;14.55;5.65;;;16.10;99.90;;;;;;4973320;28;20047;-83
2022/10/22 12:32:31;;;;;;;13.02;5.47;;;16.20;99.90;;;;;;4967634;28;20494;-83
2022/10/22 12:35:03;;;;;;;11.23;5.10;;;16.30;99.90;;;;;;4958749;28;20426;-81
2022/10/22 12:37:28;;;;;;;12.93;5.07;;;16.30;99.90;;;;;;4968112;28;20495;-82
2022/10/22 12:39:54;;;;;;;16.33;5.28;;;16.50;99.90;;;;;;4974462;28;20103;-83
2022/10/22 12:42:24;;;;;;;12.57;4.95;;;16.80;99.90;;;;;;4991628;28;20097;-84
2022/10/22 12:44:55;;;;;;;15.85;5.15;;;17.30;99.90;;;;;;4974207;28;20525;-83
2022/10/22 12:47:21;;;;;;;14.82;5.38;;;16.90;99.90;;;;;;4992669;28;20043;-87
2022/10/22 12:49:49;;;;;;;16.85;5.45;;;17.00;99.90;;;;;;4992125;28;20050;-84
2022/10/22 12:52:20;;;;;;;14.25;4.90;;;17.20;99.90;;;;;;4991349;28;20048;-83
2022/10/22 12:54:48;;;;;;;13.85;5.53;;;17.30;99.90;;;;;;4975008;28;20050;-83
2022/10/22 12:57:17;;;;;;;11.85;4.63;;;17.20;99.90;;;;;;4978506;28;20093;-84
2022/10/22 12:59:46;;;;;;;12.90;4.70;;;17.60;99.90;;;;;;4995064;28;20517;-84
2022/10/22 13:02:20;;;;;;;13.63;5.15;;;16.90;99.90;;;;;;4977879;28;20074;-85
2022/10/22 13:05:14;;;;;;;13.75;4.68;;;17.30;99.90;;;;;;4995686;28;20146;-84
2022/10/22 13:07:49;;;;;;;12.93;5.07;;;16.70;99.90;;;;;;4977372;28;20081;-83
2022/10/22 13:10:29;;;;;;;15.57;5.25;;;16.80;99.90;;;;;;4993140;28;20038;-83
2022/10/22 13:12:57;;;;;;;13.63;4.70;;;16.80;99.90;;;;;;4975924;28;20046;-83
2022/10/22 13:15:34;;;;;;;12.55;4.78;;;17.10;99.90;;;;;;4977826;28;20034;-83
2022/10/22 13:18:18;;;;;;;13.75;5.10;;;16.60;99.90;;;;;;4976930;28;20062;-83
2022/10/22 13:21:00;;;;;;;13.05;4.63;;;16.60;99.90;;;;;;4965294;28;20041;-83
2022/10/22 13:23:28;;;;;;;14.85;5.28;;;16.50;99.90;;;;;;4968540;28;20089;-83
2022/10/22 13:25:58;;;;;;;12.43;4.88;;;16.60;99.90;;;;;;4967835;28;20402;-83
2022/10/22 13:28:25;;;;;;;16.92;4.90;;;16.50;99.90;;;;;;4974566;28;20042;-83
2022/10/22 13:31:08;;;;;;;16.40;4.93;;;16.60;99.90;;;;;;4995822;28;20084;-84
2022/10/22 13:33:42;;;;;;;13.43;4.38;;;16.50;99.90;;;;;;4995843;28;20398;-83
2022/10/22 13:36:13;;;;;;;14.40;4.55;;;16.60;99.90;;;;;;4977750;28;20042;-83
2022/10/22 13:38:57;;;;;;;12.73;5.20;;;16.50;99.90;;;;;;4969554;28;20038;-83